Kezdőlap
METAR-TAF:

METAR-TAF

Repülőterek :

Lechfeld, Németország

földrajzi szélesség: 48-11N, földrajzi hosszúság: 010-52E, magasság: 555 m

Jelenlegi meteorológiai megfigyelések

A jelentés 18 perccel ezelõtt készült, 20:20 UTC
Dél-délnyugati szél 4 kt
Hőmérséklet -1°C
Páratartalom 100%
Légköri nyomás 994 hPa
Látótávolság: 7000 m

METAR: ETSL 232020Z AUTO 21004KT 7000 // ////// M01/M01 Q0994 ///

Idő: 21:38 (20:38 UTC)


TAF: hiányzik

Meteorológiai megfigyelések és előrejelzések több, mint 4000 repülőtéren (METAR és TAF jelentéseket).

A térképen piros és sárga pontok jelzik az elérhető meteorológiai állomásokat.

Mozgassa az egeret a pont fölött, hogy megjelenjen az állomás neve.

Azután kattintson az időjárási megfigyelések és előrejelzések megtekintéséhez.

A térkép megváltoztatása: kattintson a fekete keresztel jelölt zöld gombra ráközelítéshez, a vonallal jelölt zöld gombra távolításhoz, vagy a zöld nyilakra a szomszédos térképek eléréséhez.


METAR-TAF: